createdAt,value
2019-03-20T00:00:08.203Z,6.90
2019-03-20T00:05:03.262Z,7.00
2019-03-20T00:10:00.362Z,6.60
2019-03-20T00:14:55.200Z,6.20
2019-03-20T00:19:50.099Z,5.83
2019-03-20T00:24:44.965Z,5.83
2019-03-20T00:29:39.951Z,5.27
2019-03-20T00:34:34.815Z,6.80
2019-03-20T00:39:29.711Z,6.80
2019-03-20T00:44:25.298Z,5.80
2019-03-20T00:49:20.765Z,5.73
2019-03-20T00:54:15.656Z,6.17
2019-03-20T00:59:11.663Z,6.07
2019-03-20T01:04:06.794Z,5.90
2019-03-20T01:09:01.683Z,5.40
2019-03-20T01:13:56.636Z,5.30
2019-03-20T01:18:51.523Z,4.90
2019-03-20T01:23:46.490Z,4.90
2019-03-20T01:28:41.700Z,4.90
2019-03-20T01:33:36.630Z,4.90
2019-03-20T01:38:31.661Z,4.10
2019-03-20T01:43:26.882Z,4.87
2019-03-20T01:48:21.786Z,4.30
2019-03-20T01:53:16.685Z,4.60
2019-03-20T01:58:12.125Z,4.30
2019-03-20T02:03:07.291Z,4.90
2019-03-20T02:08:02.326Z,4.13
2019-03-20T02:12:58.680Z,3.70
2019-03-20T02:17:53.801Z,3.20
2019-03-20T02:22:48.771Z,4.13
2019-03-20T02:27:43.836Z,3.50
2019-03-20T02:32:38.734Z,4.00
2019-03-20T02:37:33.925Z,3.73
2019-03-20T02:42:28.873Z,3.70
2019-03-20T02:47:23.761Z,3.33
2019-03-20T02:52:18.700Z,3.53
2019-03-20T02:57:13.630Z,3.40
2019-03-20T03:02:08.824Z,3.30
2019-03-20T03:07:05.581Z,3.07
2019-03-20T03:12:00.453Z,3.30
2019-03-20T03:16:55.300Z,3.70
2019-03-20T03:21:50.286Z,3.90
2019-03-20T03:26:45.186Z,3.87
2019-03-20T03:31:40.214Z,3.70
2019-03-20T03:36:35.070Z,3.63
2019-03-20T03:41:29.932Z,3.60
2019-03-20T03:46:25.057Z,3.80
2019-03-20T03:51:20.008Z,3.87
2019-03-20T03:56:14.913Z,4.50
2019-03-20T04:01:10.199Z,4.10
2019-03-20T04:06:05.386Z,3.60
2019-03-20T04:11:00.754Z,3.87
2019-03-20T04:15:55.802Z,3.20
2019-03-20T04:20:51.708Z,3.67
2019-03-20T04:25:46.633Z,3.60
2019-03-20T04:30:41.607Z,4.13
2019-03-20T04:35:36.524Z,3.33
2019-03-20T04:40:31.409Z,3.33
2019-03-20T04:45:26.266Z,3.50
2019-03-20T04:50:21.200Z,4.00
2019-03-20T04:55:16.144Z,3.30
2019-03-20T05:00:13.028Z,3.00
2019-03-20T05:05:08.217Z,3.00
2019-03-20T05:10:03.157Z,3.10
2019-03-20T05:14:58.023Z,2.93
2019-03-20T05:19:54.040Z,3.33
2019-03-20T05:24:49.120Z,3.40
2019-03-20T05:29:43.997Z,3.67
2019-03-20T05:34:38.917Z,3.80
2019-03-20T05:39:33.848Z,2.90
2019-03-20T05:44:28.823Z,2.93
2019-03-20T05:49:24.081Z,2.83
2019-03-20T05:54:19.004Z,3.37
2019-03-20T05:59:14.025Z,3.40
2019-03-20T06:04:08.888Z,3.37
2019-03-20T06:09:05.420Z,3.20
2019-03-20T06:14:00.363Z,3.47
2019-03-20T06:18:55.286Z,3.00
2019-03-20T06:23:50.204Z,3.00
2019-03-20T06:28:44.974Z,3.13
2019-03-20T06:33:39.732Z,2.63
2019-03-20T06:38:34.472Z,3.57
2019-03-20T06:43:29.223Z,3.17
2019-03-20T06:48:23.956Z,4.37
2019-03-20T06:53:18.706Z,3.90
2019-03-20T06:58:13.431Z,9.50
2019-03-20T07:03:12.767Z,5.37
2019-03-20T07:08:07.529Z,4.00
2019-03-20T07:13:02.282Z,10.67
2019-03-20T07:17:57.293Z,4.83
2019-03-20T07:22:52.018Z,4.63
2019-03-20T07:27:46.775Z,4.47
2019-03-20T07:32:42.818Z,4.13
2019-03-20T07:37:37.542Z,4.17
2019-03-20T07:42:32.324Z,4.40
2019-03-20T07:47:27.049Z,4.03
2019-03-20T07:52:21.775Z,3.47
2019-03-20T07:57:16.769Z,4.90
2019-03-20T08:02:11.494Z,5.30
2019-03-20T08:07:06.456Z,4.73
2019-03-20T08:12:01.437Z,4.87
2019-03-20T08:16:56.166Z,5.10
2019-03-20T08:21:50.905Z,5.70
2019-03-20T08:26:45.631Z,4.77
2019-03-20T08:31:40.357Z,4.63
2019-03-20T08:36:35.493Z,4.27
2019-03-20T08:41:30.477Z,3.80
2019-03-20T08:46:25.197Z,4.43
2019-03-20T08:51:19.965Z,4.40
2019-03-20T08:56:14.707Z,3.47
2019-03-20T09:01:09.419Z,3.23
2019-03-20T09:06:04.216Z,2.80
2019-03-20T09:10:59.304Z,3.83
2019-03-20T09:15:54.392Z,3.20
2019-03-20T09:20:49.124Z,3.00
2019-03-20T09:25:43.858Z,3.00
2019-03-20T09:30:38.859Z,3.40
2019-03-20T09:35:33.590Z,3.17
2019-03-20T09:40:28.369Z,2.97
2019-03-20T09:45:23.097Z,3.17
2019-03-20T09:50:17.887Z,3.53
2019-03-20T09:55:12.978Z,2.97
2019-03-20T10:00:19.234Z,3.33
2019-03-20T10:05:14.339Z,3.10
2019-03-20T10:10:09.952Z,3.23
2019-03-20T10:15:06.956Z,3.63
2019-03-20T10:20:01.691Z,3.80
2019-03-20T10:24:56.421Z,3.70
2019-03-20T10:29:51.168Z,3.70
2019-03-20T10:34:46.354Z,3.57
2019-03-20T10:39:46.998Z,3.20
2019-03-20T10:44:41.740Z,3.30
2019-03-20T10:49:37.484Z,3.60
2019-03-20T10:54:32.269Z,3.17
2019-03-20T10:59:27.020Z,3.57
2019-03-20T11:04:22.719Z,3.50
2019-03-20T11:09:18.670Z,3.27
2019-03-20T11:14:13.645Z,3.17
2019-03-20T11:19:08.370Z,3.23
2019-03-20T11:24:03.098Z,4.10
2019-03-20T11:28:57.831Z,3.43
2019-03-20T11:33:52.899Z,3.23
2019-03-20T11:38:47.634Z,3.00
2019-03-20T11:43:42.618Z,2.63
2019-03-20T11:48:37.351Z,3.00
2019-03-20T11:53:32.088Z,3.33
2019-03-20T11:58:26.820Z,3.20
2019-03-20T12:03:21.557Z,3.03
2019-03-20T12:08:16.317Z,3.03
2019-03-20T12:13:11.916Z,3.00
2019-03-20T12:18:06.722Z,3.10
2019-03-20T12:23:02.462Z,3.63
2019-03-20T12:27:57.261Z,3.10
2019-03-20T12:32:52.065Z,2.90
2019-03-20T12:37:46.793Z,3.50
2019-03-20T12:42:42.792Z,2.90
2019-03-20T12:47:38.500Z,3.33
2019-03-20T12:52:33.225Z,3.50
2019-03-20T12:57:28.028Z,2.97
2019-03-20T13:02:22.762Z,3.07
2019-03-20T13:07:17.497Z,3.13
2019-03-20T13:12:17.415Z,3.03
2019-03-20T13:17:12.131Z,3.53
2019-03-20T13:22:06.892Z,3.30
2019-03-20T13:27:01.719Z,3.00
2019-03-20T13:31:56.496Z,3.60
2019-03-20T13:36:51.226Z,3.90
2019-03-20T13:41:45.955Z,3.57
2019-03-20T13:46:46.474Z,4.00
2019-03-20T13:51:41.210Z,3.87
2019-03-20T13:56:35.965Z,3.80
2019-03-20T14:01:30.749Z,3.97
2019-03-20T14:06:26.502Z,3.53
2019-03-20T14:11:21.669Z,3.20
2019-03-20T14:16:17.418Z,3.50
2019-03-20T14:21:12.235Z,3.47
2019-03-20T14:26:07.119Z,3.60
2019-03-20T14:31:02.019Z,3.87
2019-03-20T14:35:56.761Z,3.22
2019-03-20T14:40:59.958Z,3.03
2019-03-20T14:45:54.846Z,3.47
2019-03-20T14:50:49.627Z,3.47
2019-03-20T14:55:44.589Z,3.30
2019-03-20T15:00:39.634Z,3.47
2019-03-20T15:05:34.384Z,3.53
2019-03-20T15:10:29.390Z,3.40
2019-03-20T15:15:36.389Z,3.30
2019-03-20T15:20:31.181Z,3.33
2019-03-20T15:25:26.025Z,3.30
2019-03-20T15:30:20.828Z,3.80
2019-03-20T15:35:15.877Z,3.20
2019-03-20T15:40:12.748Z,3.70
2019-03-20T15:45:08.372Z,3.17
2019-03-20T15:50:03.235Z,2.90
2019-03-20T15:54:58.233Z,3.67
2019-03-20T15:59:54.599Z,2.80
2019-03-20T16:04:49.328Z,3.10
2019-03-20T16:09:44.101Z,3.00
2019-03-20T16:14:40.113Z,2.83
2019-03-20T16:19:35.771Z,2.90
2019-03-20T16:24:31.205Z,4.20
2019-03-20T16:29:25.943Z,3.40
2019-03-20T16:34:20.733Z,2.90
2019-03-20T16:39:15.736Z,2.90
2019-03-20T16:44:11.456Z,3.10
2019-03-20T16:49:06.190Z,3.53
2019-03-20T16:54:00.972Z,3.77
2019-03-20T16:58:55.743Z,4.60
2019-03-20T17:03:50.550Z,3.60
2019-03-20T17:08:51.172Z,3.23
2019-03-20T17:13:45.923Z,3.17
2019-03-20T17:18:40.681Z,3.33
2019-03-20T17:23:35.476Z,3.57
2019-03-20T17:28:30.208Z,3.77
2019-03-20T17:33:24.969Z,3.40
2019-03-20T17:38:19.871Z,3.53
2019-03-20T17:43:14.606Z,3.30
2019-03-20T17:48:09.360Z,3.47
2019-03-20T17:53:05.652Z,3.57
2019-03-20T17:58:00.462Z,3.13
2019-03-20T18:02:55.192Z,3.77
2019-03-20T18:07:49.931Z,4.30
2019-03-20T18:12:44.949Z,5.03
2019-03-20T18:17:39.769Z,3.57
2019-03-20T18:22:36.854Z,4.37
2019-03-20T18:27:31.582Z,4.67
2019-03-20T18:32:29.411Z,5.10
2019-03-20T18:37:24.133Z,5.27
2019-03-20T18:42:18.879Z,4.80
2019-03-20T18:47:13.619Z,5.50
2019-03-20T18:52:08.417Z,5.53
2019-03-20T18:57:03.164Z,5.37
2019-03-20T19:01:57.916Z,5.60
2019-03-20T19:06:52.986Z,5.90
2019-03-20T19:11:47.760Z,5.93
2019-03-20T19:16:42.794Z,7.37
2019-03-20T19:21:37.528Z,5.60
2019-03-20T19:26:32.283Z,5.90
2019-03-20T19:31:27.026Z,6.00
2019-03-20T19:36:21.774Z,5.73
2019-03-20T19:41:16.508Z,5.73
2019-03-20T19:46:11.310Z,5.40
2019-03-20T19:51:06.168Z,5.70
2019-03-20T19:56:01.875Z,5.83
2019-03-20T20:00:56.652Z,5.60
2019-03-20T20:05:51.442Z,6.17
2019-03-20T20:10:46.199Z,6.60
2019-03-20T20:15:40.939Z,7.20
2019-03-20T20:20:35.787Z,7.10
2019-03-20T20:25:30.530Z,6.60
2019-03-20T20:30:25.347Z,7.17
2019-03-20T20:35:26.012Z,7.37
2019-03-20T20:40:20.847Z,7.07
2019-03-20T20:45:15.683Z,7.80
2019-03-20T20:50:10.820Z,7.33
2019-03-20T20:55:06.562Z,8.97
2019-03-20T21:00:01.326Z,7.83
2019-03-20T21:04:56.071Z,9.10
2019-03-20T21:09:50.839Z,7.37
2019-03-20T21:14:45.592Z,6.93
2019-03-20T21:19:40.863Z,7.23
2019-03-20T21:24:36.149Z,7.23
2019-03-20T21:29:53.589Z,7.60
2019-03-20T21:35:33.827Z,7.53
2019-03-20T21:40:29.459Z,7.30
2019-03-20T21:46:07.479Z,8.30
2019-03-20T21:51:16.337Z,7.90
2019-03-20T21:56:32.647Z,8.10
2019-03-20T22:02:01.852Z,6.93
2019-03-20T22:07:22.042Z,7.17
2019-03-20T22:12:24.658Z,7.50
2019-03-20T22:18:24.154Z,7.00
2019-03-20T22:23:38.876Z,6.60
2019-03-20T22:29:00.687Z,6.57
2019-03-20T22:34:31.637Z,7.50
2019-03-20T22:40:03.655Z,6.60
2019-03-20T22:45:32.348Z,6.87
2019-03-20T22:50:55.242Z,6.93
2019-03-20T22:56:12.674Z,7.60
2019-03-20T23:01:07.974Z,7.00
2019-03-20T23:06:03.602Z,6.67
2019-03-20T23:10:59.268Z,7.63
2019-03-20T23:15:54.924Z,8.07
2019-03-20T23:20:50.224Z,7.93
2019-03-20T23:25:45.640Z,7.27
2019-03-20T23:30:41.152Z,8.00
2019-03-20T23:35:36.748Z,8.80
2019-03-20T23:40:35.313Z,8.40
2019-03-20T23:45:30.810Z,8.03
2019-03-20T23:50:26.266Z,8.27
2019-03-20T23:55:21.704Z,8.00
